Time;durP1;ratioP1;P1;durP2;ratioP2;P2;SDS_P1;SDS_P2;PMS_P1;PMS_P2;Temp;Humidity;BMP_temperature;BMP_pressure;BME280_temperature;BME280_humidity;BME280_pressure;Samples;Min_cycle;Max_cycle;Signal;HPM_P1;HPM_P2
2023/08/25 00:01:40;;;;;;;;;;;;;;;18.44;100.00;100832.59;5009981;28;19925;-90
2023/08/25 00:04:25;;;;;;;;;;;;;;;18.45;100.00;100837.84;5000236;28;20036;-90
2023/08/25 00:07:11;;;;;;;;;;;;;;;18.47;100.00;100837.72;5012882;28;19925;-88
2023/08/25 00:09:57;;;;;;;;;;;;;;;18.48;100.00;100838.56;4987715;28;20354;-90
2023/08/25 00:12:42;;;;;;;;;;;;;;;18.50;100.00;100842.84;5017940;28;19929;-89
2023/08/25 00:15:28;;;;;;;;;;;;;;;18.51;100.00;100844.53;5015095;28;20317;-92
2023/08/25 00:18:14;;;;;;;;;;;;;;;18.51;100.00;100831.13;5018018;28;19925;-90
2023/08/25 00:20:59;;;;;;;;;;;;;;;18.52;100.00;100830.16;5017489;28;19936;-91
2023/08/25 00:23:45;;;;;;;;;;;;;;;18.50;100.00;100826.75;5020366;28;19971;-93
2023/08/25 00:26:32;;;;;;;;;;;;;;;18.48;100.00;100834.06;5013031;28;20028;-91
2023/08/25 00:29:18;;;;;;;;;;;;;;;18.45;100.00;100829.81;5015955;28;20398;-89
2023/08/25 00:32:04;;;;;;;;;;;;;;;18.43;100.00;100825.53;5002058;28;19975;-89
2023/08/25 00:34:50;;;;;;;;;;;;;;;18.38;100.00;100828.59;4999735;28;22008;-89
2023/08/25 00:37:35;;;;;;;;;;;;;;;18.38;100.00;100833.09;5003786;28;20055;-93
2023/08/25 00:40:21;;;;;;;;;;;;;;;18.35;100.00;100828.81;5015822;28;19928;-89
2023/08/25 00:43:06;;;;;;;;;;;;;;;18.31;100.00;100828.19;5002361;28;19987;-89
2023/08/25 00:45:52;;;;;;;;;;;;;;;18.29;100.00;100824.81;4999640;28;20382;-90
2023/08/25 00:48:38;;;;;;;;;;;;;;;18.26;100.00;100830.38;4993811;28;20015;-90
2023/08/25 00:51:24;;;;;;;;;;;;;;;18.23;100.00;100830.63;5002675;28;20139;-91
2023/08/25 00:54:10;;;;;;;;;;;;;;;18.21;100.00;100832.59;5011934;28;21774;-89
2023/08/25 00:56:56;;;;;;;;;;;;;;;18.18;100.00;100832.81;4999423;28;19921;-92
2023/08/25 00:59:42;;;;;;;;;;;;;;;18.15;100.00;100830.38;4984629;28;19920;-89
2023/08/25 01:02:27;;;;;;;;;;;;;;;18.12;100.00;100828.81;5015208;28;20300;-91
2023/08/25 01:05:13;;;;;;;;;;;;;;;18.09;100.00;100829.03;5003163;28;20993;-92
2023/08/25 01:07:58;;;;;;;;;;;;;;;18.05;100.00;100839.13;5017759;28;19942;-93
2023/08/25 01:10:53;;;;;;;;;;;;;;;18.02;100.00;100838.47;5004043;28;19925;-92
2023/08/25 01:13:45;;;;;;;;;;;;;;;18.01;100.00;100844.81;5002159;28;19920;-89
2023/08/25 01:16:33;;;;;;;;;;;;;;;17.98;100.00;100848.56;5014676;28;19928;-90
2023/08/25 01:19:27;;;;;;;;;;;;;;;17.96;100.00;100847.84;4990902;28;20568;-91
2023/08/25 01:22:14;;;;;;;;;;;;;;;17.95;100.00;100843.47;5006678;28;20442;-93
2023/08/25 01:25:18;;;;;;;;;;;;;;;17.96;100.00;100838.94;5008162;28;20413;-93
2023/08/25 01:28:04;;;;;;;;;;;;;;;17.95;100.00;100827.41;5020617;28;19925;-92
2023/08/25 01:30:50;;;;;;;;;;;;;;;17.96;100.00;100837.13;4995541;28;19925;-90
2023/08/25 01:33:35;;;;;;;;;;;;;;;17.97;100.00;100838.00;4995181;28;19923;-92
2023/08/25 01:36:37;;;;;;;;;;;;;;;17.96;100.00;100845.16;5008848;28;20390;-92
2023/08/25 01:39:22;;;;;;;;;;;;;;;17.96;100.00;100849.66;5020669;28;19921;-91
2023/08/25 01:42:08;;;;;;;;;;;;;;;17.95;100.00;100847.97;5005295;28;20533;-90
2023/08/25 01:44:54;;;;;;;;;;;;;;;17.94;100.00;100841.75;5003912;28;20023;-90
2023/08/25 01:47:40;;;;;;;;;;;;;;;17.94;100.00;100848.94;5002098;28;20035;-93
2023/08/25 01:50:25;;;;;;;;;;;;;;;17.95;100.00;100845.28;5004245;28;20061;-93
2023/08/25 01:53:11;;;;;;;;;;;;;;;17.92;100.00;100839.19;4991262;28;19967;-92
2023/08/25 01:55:56;;;;;;;;;;;;;;;17.90;100.00;100841.16;5003029;28;19983;-92
2023/08/25 01:58:42;;;;;;;;;;;;;;;17.88;100.00;100837.72;5016671;28;19936;-92
2023/08/25 02:01:30;;;;;;;;;;;;;;;17.86;100.00;100838.81;5013225;28;19983;-92
2023/08/25 02:04:16;;;;;;;;;;;;;;;17.81;100.00;100830.28;5006236;28;19957;-95
2023/08/25 02:07:02;;;;;;;;;;;;;;;17.77;100.00;100824.31;5012946;28;19960;-92
2023/08/25 02:09:48;;;;;;;;;;;;;;;17.74;100.00;100824.53;5012266;28;19925;-92
2023/08/25 02:12:33;;;;;;;;;;;;;;;17.71;100.00;100825.63;5009813;28;19996;-91
2023/08/25 02:15:19;;;;;;;;;;;;;;;17.70;100.00;100823.91;5007553;28;19932;-92
2023/08/25 02:18:05;;;;;;;;;;;;;;;17.69;100.00;100811.50;5012430;28;20018;-91
2023/08/25 02:20:50;;;;;;;;;;;;;;;17.68;100.00;100819.66;5001484;28;19929;-90
2023/08/25 02:23:36;;;;;;;;;;;;;;;17.68;100.00;100825.00;5015887;28;19932;-91
2023/08/25 02:26:21;;;;;;;;;;;;;;;17.69;100.00;100832.91;5018961;28;20475;-89
2023/08/25 02:29:07;;;;;;;;;;;;;;;17.69;100.00;100830.25;5008497;28;19928;-92
2023/08/25 02:31:53;;;;;;;;;;;;;;;17.68;100.00;100825.88;5006146;28;21593;-91
2023/08/25 02:34:38;;;;;;;;;;;;;;;17.67;100.00;100824.16;5021078;28;20392;-91
2023/08/25 02:37:24;;;;;;;;;;;;;;;17.68;100.00;100822.31;5019493;28;19929;-93
2023/08/25 02:40:10;;;;;;;;;;;;;;;17.68;100.00;100812.47;5018578;28;20203;-91
2023/08/25 02:42:56;;;;;;;;;;;;;;;17.68;100.00;100807.13;5020176;28;20276;-90
2023/08/25 02:45:41;;;;;;;;;;;;;;;17.69;100.00;100810.66;5017620;28;19929;-90
2023/08/25 02:48:27;;;;;;;;;;;;;;;17.71;100.00;100812.22;5009361;28;19940;-91
2023/08/25 02:51:13;;;;;;;;;;;;;;;17.73;100.00;100814.78;5023044;28;20299;-95
2023/08/25 02:53:58;;;;;;;;;;;;;;;17.74;100.00;100814.69;5020151;28;20368;-93
2023/08/25 02:56:44;;;;;;;;;;;;;;;17.74;100.00;100809.34;5019598;28;21627;-94
2023/08/25 02:59:29;;;;;;;;;;;;;;;17.73;100.00;100813.00;5001520;28;20000;-91
2023/08/25 03:02:15;;;;;;;;;;;;;;;17.74;100.00;100812.00;5022495;28;20020;-91
2023/08/25 03:05:01;;;;;;;;;;;;;;;17.76;100.00;100804.72;5016718;28;19929;-93
2023/08/25 03:07:46;;;;;;;;;;;;;;;17.77;100.00;100798.38;5028991;28;19917;-94
2023/08/25 03:10:32;;;;;;;;;;;;;;;17.77;100.00;100793.03;5019440;28;19925;-90
2023/08/25 03:13:17;;;;;;;;;;;;;;;17.77;100.00;100787.66;5012368;28;19964;-93
2023/08/25 03:16:03;;;;;;;;;;;;;;;17.78;100.00;100786.69;5013141;28;19925;-94
2023/08/25 03:18:49;;;;;;;;;;;;;;;17.81;100.00;100787.44;4999981;28;20407;-93
2023/08/25 03:21:35;;;;;;;;;;;;;;;17.82;100.00;100789.97;5021765;28;19921;-92
2023/08/25 03:24:20;;;;;;;;;;;;;;;17.82;100.00;100779.28;4999642;28;19929;-93
2023/08/25 03:27:06;;;;;;;;;;;;;;;17.84;100.00;100779.16;5026815;28;19925;-94
2023/08/25 03:29:52;;;;;;;;;;;;;;;17.84;100.00;100782.72;5011688;28;19933;-91
2023/08/25 03:32:37;;;;;;;;;;;;;;;17.85;100.00;100778.19;5023151;28;19920;-92
2023/08/25 03:35:23;;;;;;;;;;;;;;;17.85;100.00;100783.53;4992364;28;19928;-94
2023/08/25 03:38:09;;;;;;;;;;;;;;;17.83;100.00;100775.66;5015305;28;19929;-91
2023/08/25 03:40:58;;;;;;;;;;;;;;;17.84;100.00;100774.69;4999532;28;19917;-93
2023/08/25 03:43:44;;;;;;;;;;;;;;;17.84;100.00;100781.84;5024192;28;19921;-93
2023/08/25 03:46:31;;;;;;;;;;;;;;;17.84;100.00;100776.47;5026236;28;20426;-96
2023/08/25 03:49:17;;;;;;;;;;;;;;;17.84;100.00;100782.72;5025065;28;20402;-92
2023/08/25 03:52:03;;;;;;;;;;;;;;;17.84;100.00;100785.38;5024654;28;19920;-94
2023/08/25 03:54:52;;;;;;;;;;;;;;;17.85;100.00;100784.41;5017405;28;21607;-93
2023/08/25 03:57:37;;;;;;;;;;;;;;;17.87;100.00;100784.31;5007841;28;19921;-92
2023/08/25 04:00:23;;;;;;;;;;;;;;;17.89;100.00;100787.69;4991316;28;19931;-91
2023/08/25 04:03:09;;;;;;;;;;;;;;;17.91;100.00;100783.06;5019119;28;19928;-90
2023/08/25 04:05:54;;;;;;;;;;;;;;;17.91;100.00;100778.56;5001591;28;19929;-90
2023/08/25 04:08:40;;;;;;;;;;;;;;;17.92;100.00;100768.69;5016936;28;19947;-94
2023/08/25 04:11:25;;;;;;;;;;;;;;;17.94;100.00;100777.50;5019066;28;19925;-94
2023/08/25 04:14:11;;;;;;;;;;;;;;;17.94;100.00;100780.16;5018177;28;19932;-90
2023/08/25 04:16:57;;;;;;;;;;;;;;;17.93;100.00;100775.78;5013242;28;20027;-93
2023/08/25 04:19:42;;;;;;;;;;;;;;;17.94;100.00;100781.97;5017019;28;19931;-92
2023/08/25 04:22:28;;;;;;;;;;;;;;;17.94;100.00;100777.50;5017067;28;21589;-92
2023/08/25 04:25:14;;;;;;;;;;;;;;;17.96;100.00;100780.03;5018875;28;20348;-93
2023/08/25 04:27:59;;;;;;;;;;;;;;;17.95;100.00;100779.19;5009399;28;20277;-90
2023/08/25 04:30:45;;;;;;;;;;;;;;;17.92;100.00;100772.25;5013635;28;19928;-92
2023/08/25 04:33:30;;;;;;;;;;;;;;;17.96;100.00;100775.53;5000317;28;19982;-89
2023/08/25 04:36:16;;;;;;;;;;;;;;;17.97;100.00;100777.22;5020081;28;19929;-95
2023/08/25 04:39:02;;;;;;;;;;;;;;;17.97;100.00;100769.19;5005773;28;20323;-91
2023/08/25 04:41:48;;;;;;;;;;;;;;;17.97;100.00;100771.88;4993304;28;19948;-91
2023/08/25 04:44:33;;;;;;;;;;;;;;;17.99;100.00;100775.31;5018614;28;19929;-92
2023/08/25 04:47:19;;;;;;;;;;;;;;;17.99;100.00;100777.13;5019371;28;20514;-91
2023/08/25 04:50:07;;;;;;;;;;;;;;;18.00;100.00;100768.13;5019612;28;20048;-92
2023/08/25 04:52:52;;;;;;;;;;;;;;;18.00;100.00;100774.34;5006421;28;19931;-91
2023/08/25 04:55:38;;;;;;;;;;;;;;;18.03;100.00;100775.94;5014723;28;20020;-91
2023/08/25 04:58:23;;;;;;;;;;;;;;;18.02;100.00;100775.06;5003797;28;20372;-92
2023/08/25 05:01:13;;;;;;;;;;;;;;;18.02;100.00;100779.56;5000765;28;19917;-89
2023/08/25 05:03:59;;;;;;;;;;;;;;;18.02;100.00;100768.84;5016262;28;19932;-90
2023/08/25 05:06:45;;;;;;;;;;;;;;;18.02;100.00;100782.22;5013996;28;19935;-92
2023/08/25 05:09:30;;;;;;;;;;;;;;;18.02;100.00;100777.75;5016685;28;19925;-91
2023/08/25 05:12:16;;;;;;;;;;;;;;;18.01;100.00;100777.84;5018317;28;19933;-92
2023/08/25 05:15:02;;;;;;;;;;;;;;;18.01;100.00;100778.72;5015571;28;20473;-92
2023/08/25 05:17:48;;;;;;;;;;;;;;;18.03;100.00;100775.94;5019454;28;20376;-91
2023/08/25 05:20:33;;;;;;;;;;;;;;;18.02;100.00;100767.03;5018756;28;20676;-93
2023/08/25 05:23:19;;;;;;;;;;;;;;;18.02;100.00;100771.50;5018443;28;20648;-92
2023/08/25 05:26:07;;;;;;;;;;;;;;;18.03;100.00;100775.94;4998715;28;19929;-92
2023/08/25 05:28:53;;;;;;;;;;;;;;;18.04;100.00;100777.63;4999680;28;19921;-93
2023/08/25 05:31:42;;;;;;;;;;;;;;;18.04;100.00;100781.13;4984977;28;20380;-92
2023/08/25 05:34:28;;;;;;;;;;;;;;;18.04;100.00;100775.78;4985156;28;19932;-93
2023/08/25 05:37:14;;;;;;;;;;;;;;;18.04;100.00;100780.31;4970310;28;19922;-91
2023/08/25 05:39:59;;;;;;;;;;;;;;;18.07;100.00;100787.28;4974322;28;19932;-94
2023/08/25 05:42:45;;;;;;;;;;;;;;;18.08;100.00;100794.34;5000721;28;19925;-93
2023/08/25 05:45:31;;;;;;;;;;;;;;;18.10;100.00;100792.38;4999415;28;20300;-93
2023/08/25 05:48:16;;;;;;;;;;;;;;;18.10;100.00;100784.34;5000980;28;20382;-91
2023/08/25 05:51:02;;;;;;;;;;;;;;;18.10;100.00;100793.25;4997968;28;19925;-89
2023/08/25 05:53:48;;;;;;;;;;;;;;;18.13;100.00;100784.97;4996969;28;20658;-91
2023/08/25 05:56:33;;;;;;;;;;;;;;;18.13;100.00;100781.41;4981194;28;20023;-92
2023/08/25 05:59:19;;;;;;;;;;;;;;;18.12;100.00;100785.06;4989618;28;19921;-92
2023/08/25 06:02:05;;;;;;;;;;;;;;;18.15;100.00;100782.16;4985581;28;20297;-92
2023/08/25 06:04:50;;;;;;;;;;;;;;;18.16;100.00;100781.19;4989297;28;20876;-93
2023/08/25 06:07:36;;;;;;;;;;;;;;;18.18;100.00;100784.59;5003776;28;19932;-93
2023/08/25 06:10:22;;;;;;;;;;;;;;;18.19;100.00;100784.47;4989505;28;20198;-92
2023/08/25 06:13:07;;;;;;;;;;;;;;;18.22;100.00;100780.72;5005092;28;19921;-93
2023/08/25 06:15:53;;;;;;;;;;;;;;;18.22;100.00;100785.19;4989678;28;19956;-94
2023/08/25 06:18:38;;;;;;;;;;;;;;;18.22;100.00;100780.72;5010188;28;19933;-94
2023/08/25 06:21:24;;;;;;;;;;;;;;;18.23;100.00;100787.78;5005874;28;21764;-95
2023/08/25 06:24:10;;;;;;;;;;;;;;;18.26;100.00;100775.97;4991352;28;19948;-93
2023/08/25 06:26:55;;;;;;;;;;;;;;;18.29;100.00;100779.25;5013100;28;20296;-95
2023/08/25 06:29:41;;;;;;;;;;;;;;;18.32;100.00;100768.28;5014767;28;19921;-95
2023/08/25 06:32:27;;;;;;;;;;;;;;;18.34;100.00;100768.16;5013458;28;20399;-95
2023/08/25 06:35:18;;;;;;;;;;;;;;;18.34;100.00;100768.16;5012329;28;21820;-95
2023/08/25 06:38:04;;;;;;;;;;;;;;;18.37;100.00;100767.94;5008676;28;19978;-94
2023/08/25 06:40:57;;;;;;;;;;;;;;;18.35;100.00;100772.53;5013933;28;19932;-94
2023/08/25 06:43:42;;;;;;;;;;;;;;;18.38;100.00;100772.31;5000469;28;20032;-93
2023/08/25 06:46:28;;;;;;;;;;;;;;;18.39;100.00;100770.47;5021010;28;20526;-96
2023/08/25 06:49:14;;;;;;;;;;;;;;;18.39;100.00;100771.31;5013839;28;20536;-93
2023/08/25 06:51:59;;;;;;;;;;;;;;;18.40;100.00;100778.38;5018158;28;19983;-95
2023/08/25 06:54:45;;;;;;;;;;;;;;;18.41;100.00;100771.22;5009796;28;20400;-93
2023/08/25 06:57:31;;;;;;;;;;;;;;;18.40;100.00;100772.16;5010205;28;20525;-93
2023/08/25 07:00:32;;;;;;;;;;;;;;;18.40;100.00;100772.16;4999211;28;19931;-91
2023/08/25 07:03:18;;;;;;;;;;;;;;;18.42;100.00;100772.91;4999801;28;20020;-92
2023/08/25 07:06:05;;;;;;;;;;;;;;;18.39;100.00;100773.16;4991993;28;21784;-92
2023/08/25 07:08:50;;;;;;;;;;;;;;;18.43;100.00;100780.81;4990900;28;20675;-84
2023/08/25 07:11:36;;;;;;;;;;;;;;;18.46;100.00;100780.59;4999623;28;19932;-84
2023/08/25 07:14:22;;;;;;;;;;;;;;;18.47;100.00;100784.13;4997534;28;19936;-81
2023/08/25 07:17:08;;;;;;;;;;;;;;;18.50;100.00;100783.00;5000342;28;20012;-81
2023/08/25 07:19:53;;;;;;;;;;;;;;;18.52;100.00;100781.91;5001074;28;19921;-81
2023/08/25 07:22:40;;;;;;;;;;;;;;;18.54;100.00;100779.97;5000540;28;20376;-81
2023/08/25 07:25:26;;;;;;;;;;;;;;;18.56;100.00;100787.88;4998299;28;19925;-81
2023/08/25 07:28:11;;;;;;;;;;;;;;;18.58;100.00;100784.09;5001417;28;20008;-84
2023/08/25 07:30:59;;;;;;;;;;;;;;;18.61;100.00;100790.22;4998207;28;19921;-86
2023/08/25 07:33:45;;;;;;;;;;;;;;;18.64;100.00;100790.81;5000946;28;19936;-84
2023/08/25 07:36:30;;;;;;;;;;;;;;;18.67;100.00;100784.31;4999186;28;20135;-85
2023/08/25 07:39:17;;;;;;;;;;;;;;;18.70;100.00;100789.44;5013351;28;20299;-86
2023/08/25 07:42:03;;;;;;;;;;;;;;;18.70;100.00;100782.25;5004278;28;20273;-85
2023/08/25 07:44:51;;;;;;;;;;;;;;;18.72;100.00;100779.44;5001717;28;20467;-86
2023/08/25 07:47:37;;;;;;;;;;;;;;;18.75;100.00;100771.16;5000682;28;19921;-87
2023/08/25 07:50:23;;;;;;;;;;;;;;;18.76;100.00;100774.69;5002101;28;19921;-89
2023/08/25 07:53:08;;;;;;;;;;;;;;;18.81;100.00;100776.03;5003536;28;19929;-91
2023/08/25 07:55:54;;;;;;;;;;;;;;;18.86;100.00;100779.16;5000429;28;19929;-87
2023/08/25 07:58:39;;;;;;;;;;;;;;;18.89;100.00;100775.38;5003568;28;19920;-86
2023/08/25 08:01:25;;;;;;;;;;;;;;;18.93;100.00;100775.97;5000843;28;19929;-86
2023/08/25 08:04:11;;;;;;;;;;;;;;;18.97;100.00;100777.44;5000623;28;19936;-85
2023/08/25 08:06:57;;;;;;;;;;;;;;;18.99;100.00;100780.84;5000346;28;20701;-85
2023/08/25 08:09:43;;;;;;;;;;;;;;;19.02;100.00;100775.28;4999933;28;19921;-85
2023/08/25 08:12:29;;;;;;;;;;;;;;;19.04;100.00;100776.00;4996558;28;19984;-86
2023/08/25 08:15:15;;;;;;;;;;;;;;;19.06;100.00;100776.72;5001016;28;19921;-86
2023/08/25 08:18:00;;;;;;;;;;;;;;;19.04;100.00;100773.31;4998115;28;19925;-85
2023/08/25 08:20:46;;;;;;;;;;;;;;;19.06;100.00;100778.56;4996453;28;19936;-85
2023/08/25 08:23:32;;;;;;;;;;;;;;;19.07;100.00;100781.09;5004653;28;19926;-86
2023/08/25 08:26:18;;;;;;;;;;;;;;;19.13;100.00;100782.44;5009975;28;20371;-81
2023/08/25 08:29:03;;;;;;;;;;;;;;;19.15;100.00;100775.09;5001360;28;19935;-83
2023/08/25 08:31:49;;;;;;;;;;;;;;;19.17;100.00;100781.19;5016743;28;21306;-82
2023/08/25 08:34:35;;;;;;;;;;;;;;;19.19;100.00;100781.94;5017438;28;19924;-83
2023/08/25 08:37:21;;;;;;;;;;;;;;;19.19;100.00;100776.56;5014893;28;19932;-82
2023/08/25 08:40:10;;;;;;;;;;;;;;;19.20;100.00;100775.56;5002372;28;19986;-82
2023/08/25 08:42:56;;;;;;;;;;;;;;;19.22;100.00;100778.09;5002075;28;19925;-82
2023/08/25 08:45:41;;;;;;;;;;;;;;;19.20;100.00;100769.34;5000222;28;19925;-83
2023/08/25 08:48:27;;;;;;;;;;;;;;;19.20;100.00;100775.56;5016783;28;19924;-83
2023/08/25 08:51:13;;;;;;;;;;;;;;;19.25;100.00;100765.31;5002141;28;19925;-82
2023/08/25 08:53:59;;;;;;;;;;;;;;;19.33;100.00;100761.97;5001965;28;19943;-84
2023/08/25 08:56:47;;;;;;;;;;;;;;;19.47;100.00;100760.81;5016451;28;20838;-83
2023/08/25 08:59:33;;;;;;;;;;;;;;;19.56;100.00;100761.88;5000131;28;21889;-83
2023/08/25 09:02:22;;;;;;;;;;;;;;;19.62;100.00;100769.38;5016258;28;20511;-83
2023/08/25 09:05:11;;;;;;;;;;;;;;;19.68;100.00;100778.75;5000157;28;20773;-85
2023/08/25 09:07:59;;;;;;;;;;;;;;;19.74;100.00;100785.44;5001954;28;19924;-85
2023/08/25 09:10:45;;;;;;;;;;;;;;;19.81;100.00;100789.28;4988112;28;19928;-86
2023/08/25 09:13:33;;;;;;;;;;;;;;;19.81;100.00;100784.78;5015432;28;19932;-85
2023/08/25 09:16:18;;;;;;;;;;;;;;;19.87;100.00;100790.63;5013911;28;19943;-84
2023/08/25 09:19:07;;;;;;;;;;;;;;;19.98;100.00;100781.66;4998165;28;19920;-89
2023/08/25 09:21:53;;;;;;;;;;;;;;;20.12;100.00;100775.06;5018031;28;19995;-85
2023/08/25 09:24:43;;;;;;;;;;;;;;;20.30;100.00;100777.97;4996307;28;19940;-86
2023/08/25 09:27:28;;;;;;;;;;;;;;;20.47;100.00;100788.09;4981051;28;21811;-86
2023/08/25 09:30:14;;;;;;;;;;;;;;;20.68;100.00;100799.75;4993471;28;20392;-86
2023/08/25 09:33:20;;;;;;;;;;;;;;;20.86;100.00;100789.25;4996146;28;20011;-88
2023/08/25 09:36:06;;;;;;;;;;;;;;;21.06;100.00;100783.84;4995986;28;19922;-85
2023/08/25 09:38:52;;;;;;;;;;;;;;;21.17;100.00;100791.81;4995866;28;19929;-86
2023/08/25 09:41:37;;;;;;;;;;;;;;;21.26;100.00;100795.50;4966233;28;19940;-86
2023/08/25 09:44:25;;;;;;;;;;;;;;;21.29;100.00;100797.91;4984298;28;20730;-86
2023/08/25 09:47:10;;;;;;;;;;;;;;;21.38;100.00;100789.00;4967645;28;19936;-87
2023/08/25 09:49:56;;;;;;;;;;;;;;;21.49;100.00;100796.06;4985009;28;19921;-87
2023/08/25 09:52:42;;;;;;;;;;;;;;;21.55;100.00;100795.50;4980730;28;19925;-86
2023/08/25 09:55:28;;;;;;;;;;;;;;;21.70;100.00;100795.09;4984485;28;20353;-86
2023/08/25 09:58:14;;;;;;;;;;;;;;;21.81;100.00;100792.25;4996084;28;20580;-87
2023/08/25 10:00:59;;;;;;;;;;;;;;;21.89;100.00;100794.19;4996815;28;19922;-86
2023/08/25 10:03:45;;;;;;;;;;;;;;;21.94;100.00;100788.34;4977069;28;19925;-88
2023/08/25 10:06:31;;;;;;;;;;;;;;;21.95;100.00;100800.84;4983918;28;22006;-86
2023/08/25 10:09:18;;;;;;;;;;;;;;;21.95;100.00;100793.59;4979488;28;19928;-84
2023/08/25 10:12:07;;;;;;;;;;;;;;;22.03;100.00;100797.41;4975457;28;19953;-82
2023/08/25 10:14:53;;;;;;;;;;;;;;;22.18;100.00;100792.41;4987731;28;19931;-82
2023/08/25 10:17:38;;;;;;;;;;;;;;;22.27;100.00;100794.22;4974717;28;19979;-82
2023/08/25 10:20:24;;;;;;;;;;;;;;;22.38;100.00;100795.88;4976699;28;20063;-82
2023/08/25 10:23:10;;;;;;;;;;;;;;;22.47;100.00;100799.53;4973015;28;20408;-82
2023/08/25 10:25:55;;;;;;;;;;;;;;;22.51;100.00;100782.91;4985271;28;20008;-81
2023/08/25 10:28:41;;;;;;;;;;;;;;;22.50;100.00;100793.84;4995471;28;19924;-82
2023/08/25 10:31:30;;;;;;;;;;;;;;;22.55;100.00;100786.16;4992526;28;20003;-81
2023/08/25 10:34:46;;;;;;;;;;;;;;;22.56;100.00;100787.03;4996895;28;19925;-82
2023/08/25 10:37:32;;;;;;;;;;;;;;;22.55;100.00;100788.84;4993568;28;19925;-81
2023/08/25 10:40:17;;;;;;;;;;;;;;;22.55;100.00;100780.78;4985766;28;20390;-81
2023/08/25 10:43:04;;;;;;;;;;;;;;;22.51;100.00;100784.78;5010328;28;20150;-82
2023/08/25 10:45:51;;;;;;;;;;;;;;;22.48;100.00;100788.59;4994940;28;19932;-82
2023/08/25 10:48:37;;;;;;;;;;;;;;;22.43;100.00;100787.34;4982668;28;19925;-81
2023/08/25 10:51:23;;;;;;;;;;;;;;;22.37;100.00;100770.75;4994130;28;20706;-82
2023/08/25 10:54:15;;;;;;;;;;;;;;;22.37;100.00;100778.00;4992645;28;19931;-82
2023/08/25 10:57:16;;;;;;;;;;;;;;;22.33;100.00;100776.59;5010557;28;19925;-82
2023/08/25 11:00:20;;;;;;;;;;;;;;;22.25;100.00;100777.34;4985687;28;20311;-82
2023/08/25 11:03:06;;;;;;;;;;;;;;;22.13;100.00;100770.44;4993064;28;19927;-81
2023/08/25 11:05:52;;;;;;;;;;;;;;;22.13;100.00;100770.44;4981726;28;20015;-81
2023/08/25 11:08:41;;;;;;;;;;;;;;;22.13;100.00;100771.28;5011570;28;19924;-82
2023/08/25 11:11:26;;;;;;;;;;;;;;;22.18;100.00;100763.59;4980761;28;19933;-81
2023/08/25 11:14:12;;;;;;;;;;;;;;;22.23;100.00;100764.00;4998857;28;20047;-82
2023/08/25 11:16:58;;;;;;;;;;;;;;;22.26;100.00;100760.16;5001473;28;19929;-85
2023/08/25 11:19:44;;;;;;;;;;;;;;;22.25;100.00;100758.47;5011874;28;19925;-86
2023/08/25 11:22:32;;;;;;;;;;;;;;;22.24;100.00;100763.00;5000104;28;19935;-85
2023/08/25 11:25:17;;;;;;;;;;;;;;;22.16;100.00;100759.38;4997103;28;20008;-85
2023/08/25 11:28:03;;;;;;;;;;;;;;;22.12;100.00;100756.13;4999928;28;20372;-85
2023/08/25 11:30:49;;;;;;;;;;;;;;;22.09;100.00;100759.97;5000369;28;20520;-84
2023/08/25 11:33:34;;;;;;;;;;;;;;;22.09;100.00;100757.25;5003115;28;19998;-84
2023/08/25 11:36:24;;;;;;;;;;;;;;;22.09;100.00;100754.56;5009930;28;20620;-79
2023/08/25 11:39:15;;;;;;;;;;;;;;;22.05;100.00;100757.72;4992810;28;19932;-78
2023/08/25 11:42:00;;;;;;;;;;;;;;;21.95;100.00;100757.75;4996951;28;19924;-80
2023/08/25 11:44:52;;;;;;;;;;;;;;;21.80;100.00;100755.50;4995422;28;19925;-80
2023/08/25 11:47:38;;;;;;;;;;;;;;;21.62;100.00;100754.53;4993752;28;19924;-81
2023/08/25 11:50:24;;;;;;;;;;;;;;;21.51;100.00;100759.06;4996039;28;19981;-79
2023/08/25 11:53:10;;;;;;;;;;;;;;;21.39;100.00;100762.91;4986826;28;20356;-79
2023/08/25 11:56:05;;;;;;;;;;;;;;;21.26;100.00;100761.38;4990524;28;20016;-79
2023/08/25 11:58:51;;;;;;;;;;;;;;;21.13;100.00;100761.63;4995491;28;19925;-79
2023/08/25 12:01:36;;;;;;;;;;;;;;;20.99;100.00;100757.53;4975957;28;21392;-79
2023/08/25 12:04:23;;;;;;;;;;;;;;;20.89;100.00;100757.53;4992871;28;20063;-79
2023/08/25 12:07:08;;;;;;;;;;;;;;;20.81;100.00;100760.00;4998869;28;20367;-80
2023/08/25 12:09:54;;;;;;;;;;;;;;;20.76;100.00;100762.28;4999506;28;20106;-78
2023/08/25 12:12:40;;;;;;;;;;;;;;;20.71;100.00;100754.59;4999607;28;20392;-79
2023/08/25 12:15:42;;;;;;;;;;;;;;;20.72;100.00;100767.09;4963015;28;20401;-79
2023/08/25 12:18:34;;;;;;;;;;;;;;;20.78;100.00;100763.00;4940541;28;19926;-78
2023/08/25 12:21:20;;;;;;;;;;;;;;;20.77;100.00;100761.28;4947175;28;20025;-78
2023/08/25 12:24:05;;;;;;;;;;;;;;;20.77;100.00;100767.50;4974954;28;19934;-80
2023/08/25 12:26:51;;;;;;;;;;;;;;;20.79;100.00;100758.44;4955377;28;19934;-80
2023/08/25 12:29:37;;;;;;;;;;;;;;;20.81;100.00;100760.00;4949920;28;20043;-78
2023/08/25 12:32:22;;;;;;;;;;;;;;;20.86;100.00;100751.56;4947650;28;19938;-78
2023/08/25 12:35:08;;;;;;;;;;;;;;;20.92;100.00;100759.06;4953455;28;19930;-80
2023/08/25 12:37:54;;;;;;;;;;;;;;;21.01;100.00;100760.94;4950770;28;20367;-80
2023/08/25 12:40:43;;;;;;;;;;;;;;;21.11;100.00;100760.06;4960385;28;20011;-79
2023/08/25 12:43:28;;;;;;;;;;;;;;;21.20;100.00;100758.38;4959263;28;20633;-80
2023/08/25 12:46:14;;;;;;;;;;;;;;;21.27;100.00;100744.22;4956758;28;19934;-80
2023/08/25 12:49:00;;;;;;;;;;;;;;;21.36;100.00;100744.34;4944899;28;19930;-80
2023/08/25 12:51:48;;;;;;;;;;;;;;;21.44;100.00;100749.88;4957409;28;19934;-86
2023/08/25 12:54:34;;;;;;;;;;;;;;;21.52;100.00;100741.91;4957890;28;21360;-81
2023/08/25 12:57:19;;;;;;;;;;;;;;;21.56;100.00;100748.72;4955120;28;20665;-82
2023/08/25 13:00:05;;;;;;;;;;;;;;;21.62;100.00;100749.13;4953334;27;19993;-82
2023/08/25 13:02:51;;;;;;;;;;;;;;;21.68;100.00;100745.88;4959808;28;20393;-83
2023/08/25 13:05:37;;;;;;;;;;;;;;;21.72;100.00;100746.47;4936434;28;21699;-83
2023/08/25 13:08:23;;;;;;;;;;;;;;;21.70;100.00;100743.91;4939012;28;22056;-80
2023/08/25 13:11:08;;;;;;;;;;;;;;;21.69;100.00;100739.50;4937440;28;19930;-81
2023/08/25 13:13:54;;;;;;;;;;;;;;;21.60;100.00;100732.25;4935647;28;20032;-82
2023/08/25 13:16:40;;;;;;;;;;;;;;;21.54;100.00;100734.56;4939723;28;19935;-81
2023/08/25 13:19:25;;;;;;;;;;;;;;;21.43;100.00;100732.88;4939139;28;19978;-81
2023/08/25 13:22:11;;;;;;;;;;;;;;;21.34;100.00;100722.13;4937347;28;19939;-82
2023/08/25 13:24:57;;;;;;;;;;;;;;;21.32;100.00;100727.63;4932970;28;20057;-82
2023/08/25 13:27:43;;;;;;;;;;;;;;;21.26;100.00;100721.00;4934447;28;20146;-83
2023/08/25 13:30:29;;;;;;;;;;;;;;;21.16;100.00;100712.06;4923250;28;19977;-82
2023/08/25 13:33:14;;;;;;;;;;;;;;;21.03;100.00;100707.81;4921522;28;19934;-81
2023/08/25 13:36:02;;;;;;;;;;;;;;;20.94;100.00;100705.97;4923948;28;20018;-82
2023/08/25 13:38:47;;;;;;;;;;;;;;;20.83;100.00;100711.44;4924789;28;20262;-83
2023/08/25 13:41:33;;;;;;;;;;;;;;;20.80;100.00;100709.06;4940184;28;19931;-81
2023/08/25 13:44:25;;;;;;;;;;;;;;;20.77;100.00;100711.00;4928639;28;20633;-82
2023/08/25 13:47:13;;;;;;;;;;;;;;;20.79;100.00;100702.81;4929766;28;19934;-87
2023/08/25 13:49:59;;;;;;;;;;;;;;;20.87;100.00;100702.16;4927953;28;19927;-83
2023/08/25 13:52:45;;;;;;;;;;;;;;;20.92;100.00;100707.09;4929256;28;19974;-82
2023/08/25 13:55:30;;;;;;;;;;;;;;;20.93;100.00;100714.19;4927633;28;19927;-85
2023/08/25 13:58:16;;;;;;;;;;;;;;;20.88;100.00;100712.75;4925970;28;19931;-83
2023/08/25 14:01:02;;;;;;;;;;;;;;;20.84;100.00;100718.56;4927574;28;20388;-80
2023/08/25 14:03:48;;;;;;;;;;;;;;;20.80;100.00;100719.81;4927016;28;19969;-79
2023/08/25 14:06:36;;;;;;;;;;;;;;;20.79;100.00;100720.78;4935573;28;19942;-80